Time;durP1;ratioP1;P1;durP2;ratioP2;P2;SDS_P1;SDS_P2;PMS_P1;PMS_P2;Temp;Humidity;BMP_temperature;BMP_pressure;BME280_temperature;BME280_humidity;BME280_pressure;Samples;Min_cycle;Max_cycle;Signal;HPM_P1;HPM_P2
2021/01/20 04:08:37;;;;;;;16.75;12.65;;;4.60;99.90;;;;;;5534959;23;20245;-72
2021/01/20 04:11:03;;;;;;;19.75;14.00;;;3.40;99.90;;;;;;5063589;28;20179;-72
2021/01/20 04:13:29;;;;;;;17.85;14.20;;;3.40;99.90;;;;;;5045632;28;20230;-72
2021/01/20 04:15:55;;;;;;;18.05;14.10;;;3.40;99.90;;;;;;5049141;28;20271;-72
2021/01/20 04:18:21;;;;;;;19.10;15.00;;;3.40;99.90;;;;;;5052592;28;20207;-78
2021/01/20 04:20:47;;;;;;;20.92;15.77;;;3.40;99.90;;;;;;5052763;28;20191;-77
2021/01/20 04:23:12;;;;;;;18.08;14.80;;;3.40;99.90;;;;;;5034147;28;20198;-77
2021/01/20 04:25:38;;;;;;;18.27;14.85;;;;;;;;;;5052703;28;20212;-73
2021/01/20 04:28:04;;;;;;;17.55;14.27;;;3.40;99.90;;;;;;5051794;28;20195;-73
2021/01/20 04:30:30;;;;;;;18.25;14.30;;;3.40;99.90;;;;;;5052421;28;20214;-79
2021/01/20 04:32:55;;;;;;;20.80;15.30;;;3.40;99.90;;;;;;5052163;28;20216;-79
2021/01/20 04:35:21;;;;;;;19.40;13.90;;;3.40;99.90;;;;;;5051710;28;20626;-78
2021/01/20 04:37:47;;;;;;;20.83;16.45;;;3.40;99.90;;;;;;5051679;28;20653;-79
2021/01/20 04:40:12;;;;;;;20.13;14.93;;;3.70;99.90;;;;;;5052530;28;20178;-78
2021/01/20 04:42:38;;;;;;;19.30;14.40;;;3.30;99.90;;;;;;5052235;28;20205;-73
2021/01/20 04:45:05;;;;;;;19.17;15.15;;;3.50;99.90;;;;;;5034131;28;20673;-73
2021/01/20 04:47:33;;;;;;;26.77;16.80;;;3.40;99.90;;;;;;5052063;28;20172;-73
2021/01/20 04:49:59;;;;;;;23.52;15.25;;;3.40;99.90;;;;;;5051872;28;20172;-73
2021/01/20 04:52:27;;;;;;;26.58;16.98;;;3.20;99.90;;;;;;5052041;28;20198;-73
2021/01/20 04:54:55;;;;;;;27.10;17.55;;;3.40;99.90;;;;;;5051594;28;20172;-78
2021/01/20 04:57:21;;;;;;;28.85;18.02;;;3.40;99.90;;;;;;5051756;28;20558;-79
2021/01/20 04:59:49;;;;;;;29.48;17.45;;;3.40;99.90;;;;;;5051813;28;20191;-78
2021/01/20 05:02:16;;;;;;;26.38;17.55;;;3.40;99.90;;;;;;5051836;28;20199;-78
2021/01/20 05:04:42;;;;;;;24.65;16.25;;;3.40;99.90;;;;;;5051647;28;20195;-77
2021/01/20 05:07:08;;;;;;;48.78;20.17;;;3.40;99.90;;;;;;5052045;28;20210;-78
2021/01/20 05:09:34;;;;;;;39.67;20.25;;;3.70;99.90;;;;;;5051450;28;20232;-78
2021/01/20 05:12:00;;;;;;;46.92;21.05;;;3.30;99.90;;;;;;5051705;28;20187;-79
2021/01/20 05:14:26;;;;;;;39.42;21.40;;;3.30;99.90;;;;;;5033911;28;20191;-73
2021/01/20 05:16:53;;;;;;;37.65;17.48;;;3.60;99.90;;;;;;5051114;28;20635;-73
2021/01/20 05:19:40;;;;;;;31.15;16.08;;;3.30;99.90;;;;;;5051369;28;20198;-72
2021/01/20 05:22:07;;;;;;;24.17;14.60;;;3.20;99.90;;;;;;5051287;28;20212;-72
2021/01/20 05:24:36;;;;;;;27.13;16.40;;;3.30;99.90;;;;;;5051277;28;20550;-73
2021/01/20 05:27:03;;;;;;;29.38;16.63;;;3.30;99.90;;;;;;5051449;28;20530;-73
2021/01/20 05:29:29;;;;;;;28.30;16.65;;;3.30;99.90;;;;;;5051910;28;20595;-74
2021/01/20 05:31:55;;;;;;;24.15;15.55;;;3.30;99.90;;;;;;5051588;28;20182;-73
2021/01/20 05:34:27;;;;;;;37.60;18.45;;;3.30;99.90;;;;;;5051482;28;20212;-72
2021/01/20 05:37:04;;;;;;;42.17;21.65;;;3.30;99.90;;;;;;5051588;28;20676;-74
2021/01/20 05:39:31;;;;;;;45.08;21.98;;;3.30;99.90;;;;;;5033918;28;20245;-73
2021/01/20 05:42:11;;;;;;;42.15;22.17;;;3.50;99.90;;;;;;5055404;28;20199;-73
2021/01/20 05:44:38;;;;;;;47.67;23.40;;;3.30;99.90;;;;;;5043717;28;20706;-72
2021/01/20 05:47:11;;;;;;;43.85;24.08;;;3.30;99.90;;;;;;5042626;28;20199;-71
2021/01/20 05:49:37;;;;;;;46.78;23.40;;;3.40;99.90;;;;;;5044320;28;20564;-71
2021/01/20 05:52:12;;;;;;;47.85;21.75;;;3.40;99.90;;;;;;5046134;28;20215;-74
2021/01/20 05:54:39;;;;;;;38.53;21.02;;;3.40;99.90;;;;;;5020571;28;20545;-72
2021/01/20 05:57:12;;;;;;;35.38;19.50;;;3.60;99.90;;;;;;5044997;28;20173;-74
2021/01/20 05:59:37;;;;;;;36.53;19.13;;;3.40;99.90;;;;;;5043269;28;20626;-72
2021/01/20 06:02:03;;;;;;;29.33;15.60;;;3.40;99.90;;;;;;5044986;28;20256;-72
2021/01/20 06:04:31;;;;;;;38.50;17.63;;;3.30;99.90;;;;;;5052883;28;20196;-72
2021/01/20 06:06:57;;;;;;;32.95;15.65;;;3.40;99.90;;;;;;5054143;28;20223;-72
2021/01/20 06:09:25;;;;;;;24.60;14.85;;;3.30;99.90;;;;;;5053988;28;20713;-70
2021/01/20 06:11:51;;;;;;;26.83;15.32;;;3.30;99.90;;;;;;5055205;28;20160;-68
2021/01/20 06:14:17;;;;;;;32.55;16.25;;;3.30;99.90;;;;;;5054711;28;20273;-68
2021/01/20 06:16:45;;;;;;;32.30;16.23;;;3.20;99.90;;;;;;5055051;28;20570;-66
2021/01/20 06:19:13;;;;;;;33.38;16.88;;;3.20;99.90;;;;;;5043363;28;20235;-69
2021/01/20 06:21:41;;;;;;;30.38;16.52;;;3.20;99.90;;;;;;5048842;28;20180;-69
2021/01/20 06:24:13;;;;;;;27.80;15.00;;;3.20;99.90;;;;;;5053069;28;20763;-70
2021/01/20 06:27:04;;;;;;;33.05;18.58;;;3.20;99.90;;;;;;5054533;28;20188;-69
2021/01/20 06:29:36;;;;;;;40.67;22.90;;;3.20;99.90;;;;;;5054216;28;20195;-68
2021/01/20 06:32:02;;;;;;;33.30;18.60;;;3.20;99.90;;;;;;5045444;28;20216;-69
2021/01/20 06:34:28;;;;;;;39.53;20.27;;;3.20;99.90;;;;;;5033217;28;20254;-69
2021/01/20 06:36:54;;;;;;;42.58;22.40;;;3.20;99.90;;;;;;5050049;28;20167;-68
2021/01/20 06:39:26;;;;;;;42.30;23.02;;;3.20;99.90;;;;;;5038423;28;20199;-68
2021/01/20 06:41:52;;;;;;;57.80;27.88;;;;;;;;;;5037250;28;20852;-69
2021/01/20 06:44:17;;;;;;;81.45;29.83;;;3.20;99.90;;;;;;5039828;28;20400;-69
2021/01/20 06:47:05;;;;;;;58.17;27.27;;;3.10;99.90;;;;;;5039190;28;20714;-62
2021/01/20 06:49:32;;;;;;;40.00;23.77;;;3.10;99.90;;;;;;5042047;28;20299;-67
2021/01/20 06:52:12;;;;;;;43.97;25.00;;;3.10;99.90;;;;;;5032211;28;20176;-67
2021/01/20 06:54:45;;;;;;;52.05;28.02;;;3.10;99.90;;;;;;5031273;28;20417;-66
2021/01/20 06:57:35;;;;;;;50.42;27.10;;;3.10;99.90;;;;;;5038000;28;20167;-68
2021/01/20 07:00:21;;;;;;;55.65;25.92;;;3.10;99.90;;;;;;5036548;28;20180;-68
2021/01/20 07:03:06;;;;;;;42.65;25.50;;;2.80;99.90;;;;;;5013548;28;20196;-66
2021/01/20 07:05:37;;;;;;;51.80;27.40;;;2.90;99.90;;;;;;5032947;28;20254;-65
2021/01/20 07:08:05;;;;;;;45.20;26.63;;;3.30;99.90;;;;;;5033174;28;20236;-68
2021/01/20 07:11:15;;;;;;;47.35;27.45;;;2.80;99.90;;;;;;5033885;28;20628;-68
2021/01/20 07:13:41;;;;;;;41.90;25.50;;;3.10;99.90;;;;;;4974784;28;20683;-68
2021/01/20 07:16:08;;;;;;;38.80;26.63;;;2.60;99.90;;;;;;4991867;28;20184;-68
2021/01/20 07:18:39;;;;;;;49.67;25.63;;;3.00;99.90;;;;;;4975462;28;20221;-68
2021/01/20 07:21:06;;;;;;;34.85;24.27;;;3.00;99.90;;;;;;4992016;28;20170;-68
2021/01/20 07:23:33;;;;;;;44.47;25.65;;;3.00;99.90;;;;;;4975058;28;20190;-69
2021/01/20 07:26:02;;;;;;;49.45;25.50;;;2.90;99.90;;;;;;4975546;28;20186;-72
2021/01/20 07:28:28;;;;;;;40.17;26.33;;;2.90;99.90;;;;;;4991507;28;20212;-71
2021/01/20 07:31:27;;;;;;;48.45;25.50;;;2.90;99.90;;;;;;4991871;28;20186;-72
2021/01/20 07:33:53;;;;;;;40.08;23.60;;;2.90;99.90;;;;;;4898777;29;20272;-73
2021/01/20 07:36:22;;;;;;;34.78;23.77;;;2.90;99.90;;;;;;4898919;29;20185;-73
2021/01/20 07:38:48;;;;;;;35.85;23.88;;;2.90;99.90;;;;;;4914219;29;20204;-73
2021/01/20 07:41:19;;;;;;;33.55;23.95;;;2.80;99.90;;;;;;4914395;29;20177;-73
2021/01/20 07:43:45;;;;;;;42.22;25.10;;;2.80;99.90;;;;;;4912737;28;20665;-73
2021/01/20 07:46:16;;;;;;;37.35;24.02;;;2.80;99.90;;;;;;4956055;28;20181;-73
2021/01/20 07:48:41;;;;;;;53.28;23.48;;;2.80;99.90;;;;;;4971870;28;20272;-68
2021/01/20 07:51:13;;;;;;;30.30;21.35;;;2.80;99.90;;;;;;4971830;28;20230;-68
2021/01/20 07:53:39;;;;;;;35.45;21.35;;;2.70;99.90;;;;;;4971005;28;20218;-74
2021/01/20 07:56:05;;;;;;;36.80;19.77;;;2.70;99.90;;;;;;4955790;28;20190;-73
2021/01/20 07:58:30;;;;;;;25.15;18.17;;;2.70;99.90;;;;;;4971568;28;20224;-73
2021/01/20 08:00:57;;;;;;;27.58;19.45;;;2.70;99.90;;;;;;4955894;28;20720;-72
2021/01/20 08:03:32;;;;;;;35.40;21.00;;;2.70;99.90;;;;;;4954169;28;20237;-74
2021/01/20 08:05:58;;;;;;;27.02;17.83;;;2.70;99.90;;;;;;4971825;28;20210;-74
2021/01/20 08:08:23;;;;;;;24.73;17.42;;;2.70;99.90;;;;;;4970081;28;20234;-73
2021/01/20 08:10:49;;;;;;;28.88;19.35;;;2.70;99.90;;;;;;5049701;28;20169;-73
2021/01/20 08:13:15;;;;;;;29.00;18.73;;;2.80;99.90;;;;;;5032120;28;20224;-73
2021/01/20 08:15:44;;;;;;;28.88;20.08;;;2.80;99.90;;;;;;5022571;28;20271;-73
2021/01/20 08:18:13;;;;;;;30.65;18.02;;;2.80;99.90;;;;;;5034328;28;20199;-73
2021/01/20 08:20:39;;;;;;;28.15;18.92;;;2.80;99.90;;;;;;5052507;28;20583;-74
2021/01/20 08:23:14;;;;;;;37.80;21.73;;;2.80;99.90;;;;;;5051825;28;20192;-73
2021/01/20 08:25:40;;;;;;;27.20;19.13;;;;;;;;;;5045862;28;20227;-73
2021/01/20 08:28:12;;;;;;;30.95;19.33;;;2.90;99.90;;;;;;5044847;28;20206;-73
2021/01/20 08:30:38;;;;;;;30.77;20.02;;;2.90;99.90;;;;;;5036193;28;20172;-73
2021/01/20 08:33:05;;;;;;;30.70;20.08;;;2.90;99.90;;;;;;5032768;28;20776;-73
2021/01/20 08:35:32;;;;;;;32.28;19.38;;;2.90;99.90;;;;;;5051758;28;20634;-73
2021/01/20 08:37:58;;;;;;;31.38;20.38;;;2.90;99.90;;;;;;5051817;28;20200;-73
2021/01/20 08:40:24;;;;;;;31.33;17.73;;;2.90;99.90;;;;;;5051898;28;20512;-71
2021/01/20 08:42:51;;;;;;;27.95;15.98;;;2.90;99.90;;;;;;5041130;28;20188;-73
2021/01/20 08:45:19;;;;;;;24.15;14.88;;;3.00;99.90;;;;;;5031859;28;20180;-71
2021/01/20 08:48:07;;;;;;;24.90;14.82;;;3.00;99.90;;;;;;5013699;28;20203;-73
2021/01/20 08:50:42;;;;;;;25.13;13.25;;;3.00;99.90;;;;;;5040259;28;20231;-73
2021/01/20 08:53:12;;;;;;;24.20;14.52;;;3.00;99.90;;;;;;5042872;28;20219;-73
2021/01/20 08:55:50;;;;;;;25.60;14.65;;;3.00;99.90;;;;;;5051650;28;20188;-73
2021/01/20 08:58:16;;;;;;;26.73;14.95;;;3.00;99.90;;;;;;5032938;28;20196;-74
2021/01/20 09:00:43;;;;;;;27.65;16.45;;;3.00;99.90;;;;;;5031649;28;20172;-73
2021/01/20 09:03:29;;;;;;;29.67;17.55;;;3.00;99.90;;;;;;5014211;28;20658;-73
2021/01/20 09:05:56;;;;;;;27.83;17.10;;;3.00;99.90;;;;;;5037672;28;20195;-73
2021/01/20 09:08:24;;;;;;;28.60;16.30;;;3.10;99.90;;;;;;5039378;28;20295;-74
2021/01/20 09:10:50;;;;;;;25.67;16.17;;;3.10;99.90;;;;;;5013937;28;20270;-73
2021/01/20 09:13:19;;;;;;;29.20;16.23;;;3.00;99.90;;;;;;5031000;28;20718;-73
2021/01/20 09:15:47;;;;;;;28.50;15.02;;;3.10;99.90;;;;;;5013880;28;20208;-72
2021/01/20 09:18:13;;;;;;;31.05;17.77;;;3.00;99.90;;;;;;5030661;28;20267;-73
2021/01/20 09:20:39;;;;;;;24.08;16.60;;;3.00;99.90;;;;;;5034381;28;20180;-73
2021/01/20 09:23:06;;;;;;;27.80;17.08;;;3.00;99.90;;;;;;5046293;28;20206;-72
2021/01/20 09:25:32;;;;;;;28.17;17.10;;;3.00;99.90;;;;;;5033193;28;20222;-71
2021/01/20 09:27:58;;;;;;;35.72;18.70;;;3.00;99.90;;;;;;5015943;28;20196;-70
2021/01/20 09:30:24;;;;;;;24.55;16.73;;;3.10;99.90;;;;;;5032890;28;20194;-73
2021/01/20 09:32:50;;;;;;;30.38;18.67;;;3.10;99.90;;;;;;5050983;28;20701;-73
2021/01/20 09:35:16;;;;;;;34.15;19.35;;;3.00;99.90;;;;;;5033570;28;20180;-72
2021/01/20 09:37:44;;;;;;;28.42;18.45;;;3.10;99.90;;;;;;5038087;28;20754;-74
2021/01/20 09:40:20;;;;;;;31.17;20.10;;;3.10;99.90;;;;;;5050643;28;20314;-68
2021/01/20 09:42:47;;;;;;;34.90;20.23;;;3.10;99.90;;;;;;5051108;28;20266;-68
2021/01/20 09:45:16;;;;;;;36.92;20.40;;;3.10;99.90;;;;;;5050783;28;20665;-69
2021/01/20 09:47:43;;;;;;;39.40;21.45;;;3.10;99.90;;;;;;5044102;28;20280;-69
2021/01/20 09:50:11;;;;;;;40.53;24.00;;;3.10;99.90;;;;;;5035631;28;20697;-68
2021/01/20 09:52:37;;;;;;;36.22;21.58;;;3.20;99.90;;;;;;5049567;28;20199;-69
2021/01/20 09:55:05;;;;;;;46.78;26.27;;;3.20;99.90;;;;;;5047337;28;20173;-69
2021/01/20 09:57:31;;;;;;;52.15;28.15;;;3.20;99.90;;;;;;5031197;28;20270;-69
2021/01/20 09:59:56;;;;;;;57.97;30.45;;;3.30;99.90;;;;;;5031337;28;20554;-69
2021/01/20 10:02:22;;;;;;;62.65;31.65;;;3.30;99.90;;;;;;5031324;28;20428;-69
2021/01/20 10:04:48;;;;;;;57.85;30.63;;;3.30;99.90;;;;;;5044473;28;20583;-69
2021/01/20 10:07:14;;;;;;;67.05;34.47;;;3.30;99.90;;;;;;5033194;28;20649;-68
2021/01/20 10:09:40;;;;;;;71.68;34.78;;;3.40;99.90;;;;;;5050493;28;20243;-69
2021/01/20 10:12:07;;;;;;;80.18;38.33;;;4.70;99.90;;;;;;5032823;28;20611;-69
2021/01/20 10:14:34;;;;;;;77.28;39.63;;;3.50;99.90;;;;;;5050927;28;20218;-69
2021/01/20 10:17:00;;;;;;;86.18;41.42;;;3.50;99.90;;;;;;5051085;28;20184;-69
2021/01/20 10:19:26;;;;;;;84.32;41.67;;;3.50;99.90;;;;;;5050669;28;20195;-69
2021/01/20 10:21:52;;;;;;;78.63;41.28;;;3.50;99.90;;;;;;5049623;28;20331;-69
2021/01/20 10:24:17;;;;;;;85.00;43.65;;;3.50;99.90;;;;;;5032272;28;20195;-69
2021/01/20 10:26:44;;;;;;;94.90;46.78;;;3.60;99.90;;;;;;5053056;28;20644;-70
2021/01/20 10:29:10;;;;;;;103.35;51.33;;;3.60;99.90;;;;;;5054735;28;20188;-68
2021/01/20 10:31:38;;;;;;;105.03;50.13;;;3.50;99.90;;;;;;5036812;28;20180;-69
2021/01/20 10:34:04;;;;;;;100.18;51.08;;;3.70;99.90;;;;;;5054476;28;20303;-69
2021/01/20 10:36:31;;;;;;;92.35;47.15;;;3.70;99.90;;;;;;5054368;28;20234;-69
2021/01/20 10:38:56;;;;;;;104.32;51.97;;;3.70;99.90;;;;;;5043776;28;20701;-69
2021/01/20 10:41:23;;;;;;;105.30;50.95;;;3.70;99.90;;;;;;5049574;28;20168;-69
2021/01/20 10:43:50;;;;;;;116.75;54.10;;;3.70;99.90;;;;;;5036063;28;20259;-69
2021/01/20 10:46:16;;;;;;;97.28;49.50;;;3.70;99.90;;;;;;5019314;28;20176;-68
2021/01/20 10:48:43;;;;;;;109.43;50.47;;;3.70;99.90;;;;;;5036206;28;20192;-70
2021/01/20 10:51:12;;;;;;;100.53;46.88;;;;;;;;;;5053911;28;20169;-69
2021/01/20 10:53:39;;;;;;;79.85;41.80;;;3.70;99.90;;;;;;5053118;28;20226;-70
2021/01/20 10:56:06;;;;;;;74.47;38.58;;;3.70;99.90;;;;;;5053539;28;20545;-70
2021/01/20 10:58:32;;;;;;;62.22;32.67;;;3.70;99.90;;;;;;5053256;28;20187;-72
2021/01/20 11:00:58;;;;;;;52.35;28.75;;;3.70;99.90;;;;;;5053996;28;20179;-70
2021/01/20 11:03:23;;;;;;;50.13;28.25;;;3.70;99.90;;;;;;5028185;28;20203;-70
2021/01/20 11:05:49;;;;;;;60.13;26.92;;;3.70;99.90;;;;;;5045440;28;20250;-69
2021/01/20 11:08:14;;;;;;;46.20;25.77;;;3.60;99.90;;;;;;5037634;28;20232;-70
2021/01/20 11:10:40;;;;;;;40.42;25.25;;;4.00;99.90;;;;;;5033526;28;20239;-70
2021/01/20 11:13:08;;;;;;;42.10;24.38;;;3.70;99.90;;;;;;5033404;28;20256;-69
2021/01/20 11:15:48;;;;;;;41.85;24.95;;;3.70;99.90;;;;;;5016389;28;20554;-68
2021/01/20 11:18:17;;;;;;;41.65;25.63;;;3.70;99.90;;;;;;5033374;28;20188;-70
2021/01/20 11:20:43;;;;;;;42.33;25.00;;;3.70;99.90;;;;;;5046043;28;20190;-69
2021/01/20 11:23:13;;;;;;;38.17;23.98;;;3.70;99.90;;;;;;5052764;28;20196;-70
2021/01/20 11:25:44;;;;;;;41.15;23.85;;;3.70;99.90;;;;;;5035679;28;20611;-70
2021/01/20 11:28:11;;;;;;;38.53;22.20;;;3.70;99.90;;;;;;5035352;28;20198;-70
2021/01/20 11:30:37;;;;;;;33.88;21.88;;;3.80;99.90;;;;;;5053369;28;20164;-70
2021/01/20 11:33:02;;;;;;;31.05;20.90;;;3.80;99.90;;;;;;5052281;28;20202;-70
2021/01/20 11:35:28;;;;;;;33.53;20.95;;;3.80;99.90;;;;;;5034923;28;20179;-71
2021/01/20 11:37:56;;;;;;;37.30;21.42;;;3.80;99.90;;;;;;5052445;28;20231;-70
2021/01/20 11:40:29;;;;;;;38.72;20.27;;;3.80;99.90;;;;;;5053002;28;20164;-70
2021/01/20 11:42:59;;;;;;;27.25;20.00;;;3.70;99.90;;;;;;5035482;28;20273;-70
2021/01/20 11:45:36;;;;;;;29.83;19.95;;;3.70;99.90;;;;;;5040571;28;20177;-70
2021/01/20 11:48:04;;;;;;;29.70;19.88;;;3.70;99.90;;;;;;5035535;28;20189;-70
2021/01/20 11:50:30;;;;;;;27.10;18.90;;;3.70;99.90;;;;;;5032868;28;20177;-69
2021/01/20 11:52:56;;;;;;;29.20;19.83;;;3.80;99.90;;;;;;5031519;28;20350;-69
2021/01/20 11:55:23;;;;;;;37.78;24.23;;;3.80;99.90;;;;;;5033060;28;20172;-70
2021/01/20 11:57:48;;;;;;;40.35;25.45;;;3.80;99.90;;;;;;5032746;28;20193;-69
2021/01/20 12:00:15;;;;;;;41.65;25.20;;;3.70;99.90;;;;;;5021069;28;20315;-70
2021/01/20 12:02:41;;;;;;;45.90;27.75;;;3.90;99.90;;;;;;5034620;28;20642;-69
2021/01/20 12:05:09;;;;;;;53.65;29.88;;;3.90;99.90;;;;;;5052813;28;20207;-73
2021/01/20 12:07:38;;;;;;;60.53;33.13;;;3.90;99.90;;;;;;5052811;28;20648;-73
2021/01/20 12:10:05;;;;;;;63.40;34.60;;;3.90;99.90;;;;;;5052055;28;20251;-73
2021/01/20 12:12:32;;;;;;;67.78;36.92;;;3.90;99.90;;;;;;5051792;28;20190;-73
2021/01/20 12:14:58;;;;;;;84.60;42.78;;;3.90;99.90;;;;;;5052466;28;20560;-72
2021/01/20 12:17:23;;;;;;;96.43;47.42;;;3.90;99.90;;;;;;5052252;28;20170;-73
2021/01/20 12:19:49;;;;;;;112.05;51.92;;;3.90;99.90;;;;;;5030922;28;20198;-73
2021/01/20 12:22:15;;;;;;;112.30;53.83;;;3.90;99.90;;;;;;5032592;28;20188;-73
2021/01/20 12:24:41;;;;;;;112.85;53.92;;;3.90;99.90;;;;;;5032072;28;20201;-73
2021/01/20 12:27:07;;;;;;;123.07;54.65;;;4.10;99.90;;;;;;5032218;28;20168;-73
2021/01/20 12:29:32;;;;;;;121.82;55.08;;;4.40;99.90;;;;;;5048757;28;20195;-72
2021/01/20 12:31:58;;;;;;;125.53;56.60;;;4.00;99.90;;;;;;5052061;28;20745;-73
2021/01/20 12:34:23;;;;;;;126.80;55.55;;;4.10;99.90;;;;;;5052018;28;20211;-71
2021/01/20 12:36:49;;;;;;;132.27;58.92;;;4.00;99.90;;;;;;5052242;28;20163;-73
2021/01/20 12:39:15;;;;;;;129.50;57.38;;;4.10;99.90;;;;;;5051555;28;20199;-73
2021/01/20 12:41:41;;;;;;;111.05;54.58;;;4.10;99.90;;;;;;5051375;28;20168;-74
2021/01/20 12:44:07;;;;;;;109.95;53.75;;;4.10;99.90;;;;;;5052069;28;20207;-77
2021/01/20 12:46:33;;;;;;;106.03;53.17;;;4.20;99.90;;;;;;5047072;28;20652;-76
2021/01/20 12:48:59;;;;;;;108.63;51.28;;;4.20;99.90;;;;;;5042617;28;20587;-75
2021/01/20 12:51:25;;;;;;;98.53;49.10;;;4.20;99.90;;;;;;5033748;28;20191;-75
2021/01/20 12:53:50;;;;;;;101.13;50.78;;;4.20;99.90;;;;;;5051703;28;20211;-75
2021/01/20 12:56:16;;;;;;;83.97;43.13;;;4.30;99.90;;;;;;5051168;28;20226;-75
2021/01/20 12:58:42;;;;;;;76.35;40.42;;;4.30;99.90;;;;;;5033007;28;20693;-76
2021/01/20 13:01:08;;;;;;;85.93;43.95;;;4.30;99.90;;;;;;5033598;28;20175;-73
2021/01/20 13:03:34;;;;;;;81.47;43.03;;;4.30;99.90;;;;;;5050195;28;20207;-72
2021/01/20 13:05:59;;;;;;;74.38;40.25;;;4.30;99.90;;;;;;5051212;28;20256;-72
2021/01/20 13:08:25;;;;;;;75.85;42.10;;;4.30;99.90;;;;;;5050593;28;20817;-72
2021/01/20 13:10:51;;;;;;;80.40;42.80;;;4.30;99.90;;;;;;5051243;28;20175;-73
2021/01/20 13:13:17;;;;;;;75.93;41.08;;;4.40;99.90;;;;;;5051816;28;20755;-72
2021/01/20 13:15:47;;;;;;;81.63;42.97;;;4.40;99.90;;;;;;5051777;28;20175;-73
2021/01/20 13:18:13;;;;;;;70.43;39.28;;;4.40;99.90;;;;;;5051698;28;20187;-72
2021/01/20 13:20:38;;;;;;;68.90;37.67;;;4.40;99.90;;;;;;5016761;28;20226;-73
2021/01/20 13:23:04;;;;;;;66.38;39.00;;;4.40;99.90;;;;;;5035677;28;20275;-73
2021/01/20 13:25:31;;;;;;;73.57;41.65;;;4.40;99.90;;;;;;5031370;28;20271;-72
2021/01/20 13:27:56;;;;;;;73.57;38.75;;;4.40;99.90;;;;;;5031479;28;20192;-73
2021/01/20 13:30:22;;;;;;;74.97;41.13;;;4.40;99.90;;;;;;5031648;28;20179;-72
2021/01/20 13:32:48;;;;;;;64.50;36.97;;;4.40;99.90;;;;;;5031225;28;20669;-73
2021/01/20 13:35:14;;;;;;;62.05;38.08;;;4.40;99.90;;;;;;5031739;28;20192;-73
2021/01/20 13:37:40;;;;;;;59.65;37.00;;;4.40;99.90;;;;;;5031061;28;20169;-73
2021/01/20 13:40:06;;;;;;;63.17;36.67;;;4.50;99.90;;;;;;5013222;28;20543;-73
2021/01/20 13:42:31;;;;;;;56.30;34.22;;;4.50;99.90;;;;;;5031152;28;20191;-72
2021/01/20 13:44:57;;;;;;;62.92;36.78;;;4.50;99.90;;;;;;5013889;28;20185;-73
2021/01/20 13:47:23;;;;;;;78.28;40.17;;;4.60;99.90;;;;;;5031239;28;20173;-73
2021/01/20 13:49:48;;;;;;;60.55;36.97;;;4.60;99.90;;;;;;5031485;28;20243;-73
2021/01/20 13:52:14;;;;;;;64.55;37.13;;;4.60;99.90;;;;;;5013293;28;20177;-73
2021/01/20 13:54:40;;;;;;;60.05;35.78;;;4.60;99.90;;;;;;5031149;28;20219;-73
2021/01/20 13:57:07;;;;;;;63.30;33.85;;;4.60;99.90;;;;;;5031243;28;20238;-73
2021/01/20 13:59:34;;;;;;;63.25;36.33;;;4.60;99.90;;;;;;5031385;28;20295;-72
2021/01/20 14:02:00;;;;;;;61.28;35.03;;;4.60;99.90;;;;;;5034181;28;20169;-72
2021/01/20 14:04:26;;;;;;;65.32;37.35;;;4.60;99.90;;;;;;5035029;28;20254;-71
2021/01/20 14:06:52;;;;;;;57.03;33.38;;;4.60;99.90;;;;;;5034563;28;20173;-71
2021/01/20 14:09:17;;;;;;;61.53;37.78;;;4.60;99.90;;;;;;5034043;28;20293;-71
2021/01/20 14:11:43;;;;;;;62.92;35.95;;;4.60;99.90;;;;;;5017336;28;20220;-71
2021/01/20 14:14:09;;;;;;;66.53;38.58;;;4.60;99.90;;;;;;5034775;28;20570;-70
2021/01/20 14:16:35;;;;;;;62.80;37.65;;;4.60;99.90;;;;;;5034887;28;20646;-70
2021/01/20 14:19:02;;;;;;;57.85;35.13;;;4.60;99.90;;;;;;5034823;28;20184;-69
2021/01/20 14:21:28;;;;;;;59.92;36.38;;;4.60;99.90;;;;;;5034718;28;20169;-69
2021/01/20 14:23:54;;;;;;;65.88;38.15;;;4.70;99.90;;;;;;5036831;28;20560;-69
2021/01/20 14:26:20;;;;;;;64.70;38.42;;;4.70;99.90;;;;;;5045113;28;20260;-69
2021/01/20 14:28:46;;;;;;;67.43;37.78;;;4.70;99.90;;;;;;5043096;28;20275;-70
2021/01/20 14:31:11;;;;;;;61.47;36.10;;;4.70;99.90;;;;;;5044103;28;20255;-69
2021/01/20 14:33:37;;;;;;;62.63;36.42;;;4.60;99.90;;;;;;5044671;28;20263;-69
2021/01/20 14:36:03;;;;;;;67.68;37.22;;;4.60;99.90;;;;;;5042875;28;20175;-70
2021/01/20 14:38:29;;;;;;;64.13;36.85;;;4.60;99.90;;;;;;5044232;28;20627;-70
2021/01/20 14:40:55;;;;;;;60.55;36.45;;;4.60;99.90;;;;;;5044226;28;20687;-71
2021/01/20 14:43:21;;;;;;;62.40;36.92;;;4.60;99.90;;;;;;5042565;28;20210;-70
2021/01/20 14:45:47;;;;;;;54.33;34.03;;;4.60;99.90;;;;;;5044918;28;20247;-69
2021/01/20 14:48:13;;;;;;;59.75;34.97;;;4.60;99.90;;;;;;5027403;28;20304;-70
2021/01/20 14:50:39;;;;;;;65.38;34.70;;;4.60;99.90;;;;;;5045338;28;20689;-69
2021/01/20 14:53:06;;;;;;;59.08;34.22;;;4.50;99.90;;;;;;5039167;28;20295;-69
2021/01/20 14:55:33;;;;;;;53.33;32.92;;;4.50;99.90;;;;;;5043364;28;20176;-70
2021/01/20 14:57:58;;;;;;;65.43;37.10;;;4.50;99.90;;;;;;5044206;28;20254;-69
2021/01/20 15:00:24;;;;;;;68.28;38.17;;;4.50;99.90;;;;;;5039146;28;20180;-69
2021/01/20 15:02:50;;;;;;;67.70;36.95;;;4.50;99.90;;;;;;5043039;28;20192;-69
2021/01/20 15:05:16;;;;;;;68.18;37.15;;;4.40;99.90;;;;;;5051943;28;20646;-69
2021/01/20 15:07:42;;;;;;;59.58;34.80;;;4.40;99.90;;;;;;5053073;28;20579;-70
2021/01/20 15:10:08;;;;;;;56.25;34.47;;;4.40;99.90;;;;;;5035072;28;20175;-69
2021/01/20 15:12:34;;;;;;;57.63;35.75;;;4.30;99.90;;;;;;5052626;28;20176;-69
2021/01/20 15:15:00;;;;;;;54.55;34.35;;;4.30;99.90;;;;;;5047169;28;20548;-69
2021/01/20 15:17:26;;;;;;;51.45;33.05;;;4.20;99.90;;;;;;5044125;28;20256;-67
2021/01/20 15:19:52;;;;;;;51.15;32.70;;;4.20;99.90;;;;;;5040107;28;20169;-68
2021/01/20 15:22:17;;;;;;;49.92;31.70;;;4.20;99.90;;;;;;5033524;28;20176;-69
2021/01/20 15:24:43;;;;;;;48.47;32.08;;;4.10;99.90;;;;;;5043284;28;20201;-68
2021/01/20 15:27:09;;;;;;;48.55;30.95;;;4.10;99.90;;;;;;5023758;28;20259;-68
2021/01/20 15:29:35;;;;;;;48.65;30.55;;;4.00;99.90;;;;;;5040774;28;20246;-67
2021/01/20 15:32:01;;;;;;;51.10;31.70;;;4.00;99.90;;;;;;5031609;28;20177;-69
2021/01/20 15:34:27;;;;;;;46.45;31.73;;;3.90;99.90;;;;;;5044140;28;20274;-68
2021/01/20 15:36:53;;;;;;;45.22;29.75;;;3.90;99.90;;;;;;5040363;28;20662;-68
2021/01/20 15:39:20;;;;;;;41.20;29.15;;;3.90;99.90;;;;;;5039501;28;20202;-66
2021/01/20 15:41:46;;;;;;;42.97;28.63;;;3.80;99.90;;;;;;5042228;28;20169;-65
2021/01/20 15:44:13;;;;;;;41.10;28.00;;;3.80;99.90;;;;;;5042198;28;20385;-66
2021/01/20 15:46:38;;;;;;;50.92;38.22;;;3.80;99.90;;;;;;5040115;28;20468;-66
2021/01/20 15:49:04;;;;;;;44.58;31.52;;;3.70;99.90;;;;;;5042554;28;20630;-66
2021/01/20 15:51:30;;;;;;;38.55;27.77;;;3.60;99.90;;;;;;5043122;28;20537;-66
2021/01/20 15:53:56;;;;;;;41.88;27.65;;;3.60;99.90;;;;;;5031412;28;20219;-67
2021/01/20 15:56:22;;;;;;;39.30;27.02;;;3.60;99.90;;;;;;5052670;28;20179;-65
2021/01/20 15:58:48;;;;;;;37.72;27.10;;;3.60;99.90;;;;;;5052798;28;20231;-65
2021/01/20 16:01:13;;;;;;;37.35;26.50;;;3.50;99.90;;;;;;5039035;28;20650;-66
2021/01/20 16:03:39;;;;;;;45.50;29.25;;;3.50;99.90;;;;;;5048566;28;20601;-66
2021/01/20 16:06:05;;;;;;;42.90;30.52;;;3.50;99.90;;;;;;5031991;28;20171;-66
2021/01/20 16:08:31;;;;;;;44.83;29.92;;;3.50;99.90;;;;;;5039301;28;20318;-66
2021/01/20 16:10:56;;;;;;;42.85;28.60;;;3.40;99.90;;;;;;5032628;28;20208;-66
2021/01/20 16:13:22;;;;;;;45.00;29.58;;;3.40;99.90;;;;;;5032192;28;20224;-64
2021/01/20 16:15:48;;;;;;;40.38;28.70;;;3.30;99.90;;;;;;5040953;28;20172;-64
2021/01/20 16:18:14;;;;;;;48.30;28.92;;;3.30;99.90;;;;;;5043158;28;20190;-73
2021/01/20 16:20:39;;;;;;;40.30;29.05;;;3.30;99.90;;;;;;5041826;28;20275;-72
2021/01/20 16:23:05;;;;;;;43.50;27.85;;;3.30;99.90;;;;;;5042152;28;20198;-72
2021/01/20 16:25:31;;;;;;;38.72;27.23;;;3.20;99.90;;;;;;5030844;28;20179;-73
2021/01/20 16:27:57;;;;;;;41.80;27.80;;;3.10;99.90;;;;;;5042177;28;20265;-74
2021/01/20 16:30:23;;;;;;;39.83;25.90;;;3.10;99.90;;;;;;5027858;28;20542;-76
2021/01/20 16:32:50;;;;;;;41.50;28.60;;;3.10;99.90;;;;;;5024384;28;20299;-76
2021/01/20 16:35:16;;;;;;;37.13;26.35;;;3.00;99.90;;;;;;5037535;28;20172;-76
2021/01/20 16:37:44;;;;;;;37.97;27.27;;;3.00;99.90;;;;;;5051134;28;20578;-77
2021/01/20 16:40:12;;;;;;;34.20;26.48;;;3.00;99.90;;;;;;5051801;28;20172;-76
2021/01/20 16:42:39;;;;;;;36.42;27.58;;;3.00;99.90;;;;;;5052834;28;20203;-77
2021/01/20 16:45:05;;;;;;;34.90;27.20;;;2.90;99.90;;;;;;5040726;28;20172;-76
2021/01/20 16:47:31;;;;;;;36.00;27.75;;;2.90;99.90;;;;;;5038716;28;20179;-76